createdAt,value
2019-01-25T00:02:12.631Z,37.87
2019-01-25T00:04:42.179Z,34.30
2019-01-25T00:07:11.768Z,34.17
2019-01-25T00:09:41.410Z,36.20
2019-01-25T00:12:11.077Z,35.03
2019-01-25T00:14:41.580Z,36.87
2019-01-25T00:17:11.374Z,34.63
2019-01-25T00:19:41.016Z,35.30
2019-01-25T00:22:11.726Z,35.57
2019-01-25T00:24:42.497Z,36.20
2019-01-25T00:27:12.199Z,35.13
2019-01-25T00:29:41.768Z,35.63
2019-01-25T00:32:11.364Z,33.97
2019-01-25T00:34:40.951Z,35.70
2019-01-25T00:37:10.520Z,35.67
2019-01-25T00:39:40.106Z,34.17
2019-01-25T00:42:09.721Z,35.57
2019-01-25T00:44:39.277Z,35.37
2019-01-25T00:47:08.883Z,36.13
2019-01-25T00:49:38.717Z,35.90
2019-01-25T00:52:08.332Z,33.27
2019-01-25T00:54:37.916Z,36.97
2019-01-25T00:57:07.832Z,34.83
2019-01-25T00:59:38.973Z,36.07
2019-01-25T01:02:08.575Z,34.77
2019-01-25T01:04:38.226Z,35.40
2019-01-25T01:07:08.661Z,33.47
2019-01-25T01:09:38.254Z,35.53
2019-01-25T01:12:09.017Z,29.17
2019-01-25T01:14:40.703Z,29.27
2019-01-25T01:17:10.309Z,31.80
2019-01-25T01:19:39.886Z,31.23
2019-01-25T01:22:09.475Z,34.43
2019-01-25T01:24:39.044Z,34.07
2019-01-25T01:27:08.705Z,32.03
2019-01-25T01:29:38.562Z,30.33
2019-01-25T01:32:08.500Z,30.93
2019-01-25T01:34:38.064Z,31.73
2019-01-25T01:37:07.715Z,33.27
2019-01-25T01:39:38.446Z,34.77
2019-01-25T01:42:08.021Z,28.37
2019-01-25T01:44:37.606Z,28.30
2019-01-25T01:47:07.449Z,28.67
2019-01-25T01:49:36.998Z,32.30
2019-01-25T01:52:06.594Z,30.90
2019-01-25T01:54:36.226Z,31.80
2019-01-25T01:57:05.939Z,26.30
2019-01-25T01:59:37.234Z,28.30
2019-01-25T02:02:07.180Z,27.13
2019-01-25T02:04:36.773Z,27.47
2019-01-25T02:07:06.421Z,29.70
2019-01-25T02:09:36.017Z,23.67
2019-01-25T02:12:05.664Z,25.13
2019-01-25T02:14:35.582Z,25.23
2019-01-25T02:17:06.206Z,26.37
2019-01-25T02:19:37.452Z,23.87
2019-01-25T02:22:07.048Z,23.27
2019-01-25T02:24:36.610Z,27.67
2019-01-25T02:27:06.373Z,27.73
2019-01-25T02:29:35.959Z,26.63
2019-01-25T02:32:05.662Z,26.10
2019-01-25T02:34:35.259Z,28.53
2019-01-25T02:37:05.153Z,27.77
2019-01-25T02:39:36.205Z,26.53
2019-01-25T02:42:05.864Z,28.03
2019-01-25T02:44:35.457Z,25.63
2019-01-25T02:47:05.106Z,19.80
2019-01-25T02:49:34.682Z,21.40
2019-01-25T02:52:04.442Z,20.23
2019-01-25T02:54:34.021Z,23.30
2019-01-25T02:57:03.626Z,24.73
2019-01-25T02:59:33.194Z,23.73
2019-01-25T03:02:02.760Z,23.27
2019-01-25T03:04:32.349Z,24.07
2019-01-25T03:07:01.923Z,25.20
2019-01-25T03:09:31.776Z,23.27
2019-01-25T03:12:01.385Z,27.67
2019-01-25T03:14:30.973Z,31.90
2019-01-25T03:17:00.544Z,30.87
2019-01-25T03:19:30.149Z,31.80
2019-01-25T03:21:59.744Z,30.00
2019-01-25T03:24:29.301Z,28.17
2019-01-25T03:26:58.891Z,27.33
2019-01-25T03:29:28.489Z,39.07
2019-01-25T03:31:58.057Z,32.33
2019-01-25T03:34:27.631Z,30.53
2019-01-25T03:36:57.219Z,29.43
2019-01-25T03:39:26.789Z,28.83
2019-01-25T03:41:56.382Z,25.23
2019-01-25T03:44:25.952Z,25.93
2019-01-25T03:46:55.797Z,26.00
2019-01-25T03:49:25.383Z,24.57
2019-01-25T03:51:54.956Z,24.53
2019-01-25T03:54:24.531Z,23.60
2019-01-25T03:56:54.128Z,25.10
2019-01-25T03:59:23.730Z,24.47
2019-01-25T04:01:53.307Z,25.47
2019-01-25T04:04:22.890Z,23.27
2019-01-25T04:06:52.460Z,25.07
2019-01-25T04:09:22.075Z,23.60
2019-01-25T04:11:51.722Z,24.37
2019-01-25T04:14:21.308Z,24.83
2019-01-25T04:16:50.894Z,24.63
2019-01-25T04:19:20.554Z,24.87
2019-01-25T04:21:50.131Z,24.23
2019-01-25T04:24:19.690Z,24.83
2019-01-25T04:26:49.259Z,27.70
2019-01-25T04:29:18.819Z,25.83
2019-01-25T04:31:48.409Z,26.57
2019-01-25T04:34:17.970Z,25.80
2019-01-25T04:36:47.542Z,26.30
2019-01-25T04:39:17.117Z,25.70
2019-01-25T04:41:46.688Z,25.83
2019-01-25T04:44:16.264Z,27.53
2019-01-25T04:46:45.837Z,25.50
2019-01-25T04:49:15.418Z,27.57
2019-01-25T04:51:45.030Z,26.63
2019-01-25T04:54:14.618Z,27.50
2019-01-25T04:56:44.203Z,27.00
2019-01-25T04:59:13.769Z,30.17
2019-01-25T05:01:43.420Z,27.47
2019-01-25T05:04:12.958Z,30.73
2019-01-25T05:06:42.593Z,30.07
2019-01-25T05:09:12.162Z,31.07
2019-01-25T05:11:44.442Z,30.40
2019-01-25T05:14:14.002Z,32.20
2019-01-25T05:16:43.587Z,29.97
2019-01-25T05:19:13.136Z,29.47
2019-01-25T05:21:42.710Z,32.63
2019-01-25T05:24:12.687Z,30.17
2019-01-25T05:26:42.275Z,30.50
2019-01-25T05:29:11.816Z,29.90
2019-01-25T05:31:41.413Z,30.73
2019-01-25T05:34:10.948Z,29.57
2019-01-25T05:36:40.495Z,30.60
2019-01-25T05:39:10.077Z,29.43
2019-01-25T05:41:39.654Z,30.20
2019-01-25T05:44:09.194Z,30.20
2019-01-25T05:46:38.761Z,32.17
2019-01-25T05:49:08.421Z,34.93
2019-01-25T05:51:37.957Z,31.33
2019-01-25T05:54:07.754Z,30.07
2019-01-25T05:56:41.861Z,31.17
2019-01-25T05:59:11.440Z,30.83
2019-01-25T06:01:44.823Z,32.77
2019-01-25T06:04:14.389Z,30.53
2019-01-25T06:06:45.437Z,29.33
2019-01-25T06:09:21.465Z,31.50
2019-01-25T06:11:52.783Z,32.57
2019-01-25T06:14:22.335Z,31.43
2019-01-25T06:16:51.894Z,30.23
2019-01-25T06:19:21.540Z,31.80
2019-01-25T06:21:55.342Z,32.57
2019-01-25T06:24:24.880Z,29.83
2019-01-25T06:26:54.564Z,32.03
2019-01-25T06:29:25.753Z,31.37
2019-01-25T06:31:55.298Z,35.33
2019-01-25T06:34:24.854Z,34.50
2019-01-25T06:36:54.418Z,33.67
2019-01-25T06:39:25.785Z,31.23
2019-01-25T06:41:55.655Z,34.10
2019-01-25T06:44:25.194Z,32.80
2019-01-25T06:46:55.955Z,35.63
2019-01-25T06:49:25.571Z,31.93
2019-01-25T06:51:55.109Z,31.93
2019-01-25T06:54:24.667Z,33.77
2019-01-25T06:56:54.231Z,33.03
2019-01-25T06:59:23.842Z,35.70
2019-01-25T07:01:55.041Z,35.43
2019-01-25T07:04:24.586Z,36.30
2019-01-25T07:06:54.140Z,34.17
2019-01-25T07:09:23.762Z,33.73
2019-01-25T07:11:55.539Z,35.40
2019-01-25T07:14:25.149Z,34.30
2019-01-25T07:16:54.718Z,33.17
2019-01-25T07:19:24.269Z,33.47
2019-01-25T07:21:53.820Z,33.63
2019-01-25T07:24:27.935Z,34.73
2019-01-25T07:26:57.553Z,35.83
2019-01-25T07:29:27.108Z,36.20
2019-01-25T07:31:57.141Z,34.63
2019-01-25T07:34:26.754Z,34.00
2019-01-25T07:36:56.294Z,37.33
2019-01-25T07:39:28.792Z,35.83
2019-01-25T07:41:59.434Z,34.70
2019-01-25T07:44:30.022Z,31.53
2019-01-25T07:46:59.593Z,32.40
2019-01-25T07:49:29.176Z,33.80
2019-01-25T07:51:59.935Z,35.30
2019-01-25T07:54:29.718Z,31.70
2019-01-25T07:56:59.348Z,33.87
2019-01-25T07:59:28.912Z,34.70
2019-01-25T08:01:58.477Z,35.27
2019-01-25T08:04:31.662Z,35.87
2019-01-25T08:07:01.206Z,35.30
2019-01-25T08:09:31.215Z,33.70
2019-01-25T08:12:07.371Z,32.70
2019-01-25T08:14:32.117Z,33.50
2019-01-25T08:17:03.253Z,34.93
2019-01-25T08:19:32.868Z,32.57
2019-01-25T08:22:02.422Z,33.27
2019-01-25T08:24:31.985Z,32.63
2019-01-25T08:27:01.580Z,31.50
2019-01-25T08:29:31.156Z,31.33
2019-01-25T08:32:00.808Z,31.70
2019-01-25T08:34:30.377Z,31.97
2019-01-25T08:37:00.017Z,32.13
2019-01-25T08:39:29.556Z,31.80
2019-01-25T08:41:59.140Z,30.97
2019-01-25T08:44:28.701Z,29.47
2019-01-25T08:46:58.259Z,28.27
2019-01-25T08:49:28.035Z,27.33
2019-01-25T08:51:59.108Z,26.40
2019-01-25T08:54:28.721Z,26.37
2019-01-25T08:56:58.318Z,26.93
2019-01-25T08:59:27.886Z,27.47
2019-01-25T09:01:57.759Z,28.43
2019-01-25T09:04:27.954Z,28.00
2019-01-25T09:06:57.509Z,27.60
2019-01-25T09:09:28.629Z,30.40
2019-01-25T09:11:58.177Z,27.20
2019-01-25T09:14:27.734Z,30.00
2019-01-25T09:16:57.317Z,29.17
2019-01-25T09:19:26.855Z,27.40
2019-01-25T09:21:56.395Z,27.80
2019-01-25T09:24:25.958Z,27.37
2019-01-25T09:26:55.490Z,26.77
2019-01-25T09:29:25.066Z,25.13
2019-01-25T09:31:56.863Z,25.53
2019-01-25T09:34:27.966Z,24.27
2019-01-25T09:36:57.501Z,25.33
2019-01-25T09:39:27.063Z,27.13
2019-01-25T09:41:56.621Z,26.90
2019-01-25T09:44:28.591Z,28.70
2019-01-25T09:46:59.776Z,27.17
2019-01-25T09:49:29.341Z,28.20
2019-01-25T09:51:59.705Z,26.40
2019-01-25T09:54:29.273Z,28.13
2019-01-25T09:56:58.859Z,31.13
2019-01-25T09:59:28.596Z,30.03
2019-01-25T10:01:58.154Z,29.00
2019-01-25T10:04:27.838Z,29.10
2019-01-25T10:06:57.395Z,28.17
2019-01-25T10:09:27.022Z,28.40
2019-01-25T10:11:56.591Z,28.53
2019-01-25T10:14:26.372Z,29.30
2019-01-25T10:16:55.944Z,26.60
2019-01-25T10:19:25.501Z,27.63
2019-01-25T10:21:55.066Z,29.30
2019-01-25T10:24:24.643Z,28.00
2019-01-25T10:26:54.184Z,26.03
2019-01-25T10:29:23.756Z,25.33
2019-01-25T10:31:53.308Z,26.83
2019-01-25T10:34:22.935Z,31.53
2019-01-25T10:36:52.525Z,26.73
2019-01-25T10:39:22.048Z,26.67
2019-01-25T10:41:51.589Z,28.00
2019-01-25T10:44:21.129Z,29.97
2019-01-25T10:46:52.334Z,29.67
2019-01-25T10:49:22.021Z,30.23
2019-01-25T10:51:51.595Z,31.23
2019-01-25T10:54:21.181Z,30.37
2019-01-25T10:56:50.725Z,31.37
2019-01-25T10:59:20.284Z,32.80
2019-01-25T11:01:49.810Z,31.60
2019-01-25T11:04:19.382Z,31.83
2019-01-25T11:06:48.928Z,33.93
2019-01-25T11:09:18.475Z,33.93
2019-01-25T11:11:49.108Z,33.80
2019-01-25T11:14:18.668Z,36.20
2019-01-25T11:16:48.203Z,35.23
2019-01-25T11:19:17.767Z,36.07
2019-01-25T11:21:47.332Z,38.43
2019-01-25T11:24:16.918Z,34.83
2019-01-25T11:26:46.442Z,36.27
2019-01-25T11:29:16.043Z,38.67
2019-01-25T11:31:47.092Z,37.93
2019-01-25T11:34:16.668Z,35.50
2019-01-25T11:36:46.229Z,37.00
2019-01-25T11:39:15.902Z,38.03
2019-01-25T11:41:45.469Z,39.07
2019-01-25T11:44:15.007Z,40.37
2019-01-25T11:46:44.735Z,42.43
2019-01-25T11:49:14.259Z,40.87
2019-01-25T11:51:43.811Z,39.70
2019-01-25T11:54:13.369Z,40.10
2019-01-25T11:56:46.762Z,41.37
2019-01-25T11:59:16.357Z,40.27
2019-01-25T12:01:49.166Z,40.77
2019-01-25T12:04:18.781Z,39.03
2019-01-25T12:06:48.324Z,38.10
2019-01-25T12:09:17.853Z,39.00
2019-01-25T12:11:51.466Z,35.57
2019-01-25T12:14:21.061Z,35.57
2019-01-25T12:16:50.634Z,34.33
2019-01-25T12:19:20.159Z,35.10
2019-01-25T12:21:49.721Z,36.23
2019-01-25T12:24:19.270Z,33.53
2019-01-25T12:26:48.833Z,36.13
2019-01-25T12:29:18.436Z,33.97
2019-01-25T12:31:47.998Z,35.17
2019-01-25T12:34:17.556Z,35.50
2019-01-25T12:36:47.108Z,35.30
2019-01-25T12:39:18.017Z,34.73
2019-01-25T12:41:47.996Z,33.33
2019-01-25T12:44:17.823Z,34.27
2019-01-25T12:46:47.369Z,35.13
2019-01-25T12:49:16.918Z,32.47
2019-01-25T12:51:47.715Z,33.40
2019-01-25T12:54:17.308Z,32.97
2019-01-25T12:56:47.111Z,35.13
2019-01-25T12:59:16.645Z,31.97
2019-01-25T13:01:46.196Z,30.13
2019-01-25T13:04:16.354Z,32.33
2019-01-25T13:06:46.047Z,32.03
2019-01-25T13:09:19.505Z,30.80
2019-01-25T13:11:48.800Z,31.67
2019-01-25T13:14:18.356Z,28.97
2019-01-25T13:16:47.935Z,32.63
2019-01-25T13:19:17.483Z,32.80
2019-01-25T13:21:47.029Z,29.87
2019-01-25T13:24:16.611Z,31.57
2019-01-25T13:26:46.184Z,30.07
2019-01-25T13:29:16.121Z,30.47
2019-01-25T13:31:48.452Z,30.13
2019-01-25T13:34:18.223Z,32.37
2019-01-25T13:36:56.797Z,32.30
2019-01-25T13:39:21.527Z,32.50
2019-01-25T13:41:51.078Z,28.50
2019-01-25T13:44:20.903Z,30.93
2019-01-25T13:46:50.434Z,31.13
2019-01-25T13:49:19.992Z,30.27
2019-01-25T13:51:49.544Z,29.57
2019-01-25T13:54:19.079Z,29.60
2019-01-25T13:56:48.657Z,29.37
2019-01-25T13:59:18.224Z,28.83
2019-01-25T14:01:47.737Z,27.27
2019-01-25T14:04:17.303Z,25.67
2019-01-25T14:06:46.849Z,25.77
2019-01-25T14:09:16.900Z,25.33
2019-01-25T14:11:46.526Z,25.67
2019-01-25T14:14:16.073Z,22.83
2019-01-25T14:16:45.623Z,23.83
2019-01-25T14:19:15.177Z,23.33
2019-01-25T14:21:44.722Z,23.27
2019-01-25T14:24:16.639Z,21.47
2019-01-25T14:26:45.795Z,21.70
2019-01-25T14:29:15.340Z,21.23
2019-01-25T14:31:44.913Z,22.10
2019-01-25T14:34:14.450Z,22.20
2019-01-25T14:36:43.986Z,22.00
2019-01-25T14:39:13.513Z,22.30
2019-01-25T14:41:43.326Z,22.00
2019-01-25T14:44:13.116Z,22.43
2019-01-25T14:46:42.664Z,24.43
2019-01-25T14:49:12.221Z,22.70
2019-01-25T14:51:41.850Z,23.20
2019-01-25T14:54:11.415Z,25.27
2019-01-25T14:56:40.963Z,24.10
2019-01-25T14:59:10.807Z,23.27
2019-01-25T15:01:40.356Z,23.00
2019-01-25T15:04:09.927Z,20.87
2019-01-25T15:06:39.470Z,23.20
2019-01-25T15:09:10.373Z,22.20
2019-01-25T15:11:40.098Z,22.57
2019-01-25T15:14:09.707Z,21.83
2019-01-25T15:16:41.917Z,22.97
2019-01-25T15:19:11.518Z,23.03
2019-01-25T15:21:41.103Z,23.20
2019-01-25T15:24:10.650Z,21.87
2019-01-25T15:26:40.220Z,22.43
2019-01-25T15:29:09.744Z,22.27
2019-01-25T15:31:39.331Z,22.53
2019-01-25T15:34:12.992Z,21.33
2019-01-25T15:36:42.560Z,20.77
2019-01-25T15:39:12.222Z,22.17
2019-01-25T15:41:41.995Z,21.37
2019-01-25T15:44:11.538Z,22.93
2019-01-25T15:46:41.068Z,21.93
2019-01-25T15:49:10.733Z,21.33
2019-01-25T15:51:40.341Z,21.90
2019-01-25T15:54:12.275Z,23.33
2019-01-25T15:56:41.882Z,22.57
2019-01-25T15:59:11.417Z,22.23
2019-01-25T16:01:40.957Z,24.00
2019-01-25T16:04:10.485Z,24.33
2019-01-25T16:06:40.040Z,23.57
2019-01-25T16:09:14.089Z,25.03
2019-01-25T16:11:42.740Z,24.13
2019-01-25T16:14:17.865Z,24.30
2019-01-25T16:16:43.864Z,24.03
2019-01-25T16:19:13.385Z,22.93
2019-01-25T16:21:43.196Z,23.77
2019-01-25T16:24:14.278Z,25.40
2019-01-25T16:26:44.430Z,22.40
2019-01-25T16:29:14.050Z,23.77
2019-01-25T16:31:45.233Z,23.40
2019-01-25T16:34:17.946Z,25.03
2019-01-25T16:36:47.463Z,24.93
2019-01-25T16:39:16.996Z,24.60
2019-01-25T16:41:46.563Z,23.00
2019-01-25T16:44:25.377Z,22.97
2019-01-25T16:46:49.833Z,23.30
2019-01-25T16:49:19.389Z,24.67
2019-01-25T16:51:48.930Z,24.77
2019-01-25T16:54:18.500Z,24.43
2019-01-25T16:56:48.025Z,25.30
2019-01-25T16:59:17.565Z,25.43
2019-01-25T17:01:47.141Z,24.87
2019-01-25T17:04:16.730Z,25.47
2019-01-25T17:06:46.232Z,27.10
2019-01-25T17:09:15.798Z,25.73
2019-01-25T17:11:46.895Z,25.47
2019-01-25T17:14:16.510Z,26.30
2019-01-25T17:16:46.064Z,24.93
2019-01-25T17:19:18.559Z,26.20
2019-01-25T17:21:48.107Z,27.00
2019-01-25T17:24:17.649Z,26.77
2019-01-25T17:26:47.195Z,27.90
2019-01-25T17:29:18.518Z,27.43
2019-01-25T17:31:48.132Z,26.40
2019-01-25T17:34:17.678Z,25.53
2019-01-25T17:36:47.192Z,26.43
2019-01-25T17:39:17.025Z,25.73
2019-01-25T17:41:46.583Z,24.90
2019-01-25T17:44:16.119Z,24.03
2019-01-25T17:46:45.935Z,23.77
2019-01-25T17:49:17.178Z,24.00
2019-01-25T17:51:47.492Z,24.00
2019-01-25T17:54:17.042Z,24.80
2019-01-25T17:56:46.591Z,22.97
2019-01-25T17:59:16.181Z,23.57
2019-01-25T18:01:45.932Z,22.27
2019-01-25T18:04:15.476Z,22.40
2019-01-25T18:06:45.012Z,20.47
2019-01-25T18:09:14.546Z,21.07
2019-01-25T18:11:47.589Z,18.43
2019-01-25T18:14:17.118Z,17.77
2019-01-25T18:16:46.677Z,18.50
2019-01-25T18:19:16.238Z,17.63
2019-01-25T18:21:45.783Z,17.27
2019-01-25T18:24:15.338Z,18.10
2019-01-25T18:26:44.882Z,16.30
2019-01-25T18:29:14.484Z,16.13
2019-01-25T18:31:44.043Z,15.53
2019-01-25T18:34:13.595Z,13.90
2019-01-25T18:36:43.175Z,15.17
2019-01-25T18:39:12.938Z,13.80
2019-01-25T18:41:42.511Z,12.67
2019-01-25T18:44:12.345Z,12.13
2019-01-25T18:46:43.139Z,12.23
2019-01-25T18:49:12.740Z,10.30
2019-01-25T18:51:42.274Z,9.80
2019-01-25T18:54:11.851Z,10.23
2019-01-25T18:56:41.700Z,8.77
2019-01-25T18:59:11.235Z,8.03
2019-01-25T19:01:41.017Z,7.77
2019-01-25T19:04:10.564Z,7.77
2019-01-25T19:06:40.110Z,8.40
2019-01-25T19:09:09.831Z,6.77
2019-01-25T19:11:39.355Z,7.30
2019-01-25T19:14:08.916Z,7.10
2019-01-25T19:16:38.496Z,6.73
2019-01-25T19:19:08.305Z,6.23
2019-01-25T19:21:38.608Z,6.63
2019-01-25T19:24:08.579Z,5.77
2019-01-25T19:26:38.109Z,6.27
2019-01-25T19:29:07.637Z,6.07
2019-01-25T19:31:37.424Z,6.17
2019-01-25T19:34:07.027Z,6.00
2019-01-25T19:36:36.576Z,5.83
2019-01-25T19:39:09.126Z,5.90
2019-01-25T19:41:40.766Z,5.77
2019-01-25T19:44:10.430Z,6.40
2019-01-25T19:46:39.956Z,5.90
2019-01-25T19:49:09.560Z,6.10
2019-01-25T19:51:39.168Z,6.23
2019-01-25T19:54:11.897Z,6.00
2019-01-25T19:56:41.515Z,5.70
2019-01-25T19:59:11.167Z,6.00
2019-01-25T20:01:40.813Z,5.87
2019-01-25T20:04:10.563Z,5.23
2019-01-25T20:06:40.111Z,5.43
2019-01-25T20:09:09.965Z,5.47
2019-01-25T20:11:39.501Z,5.13
2019-01-25T20:14:09.056Z,5.13
2019-01-25T20:16:38.918Z,6.27
2019-01-25T20:19:08.712Z,5.70
2019-01-25T20:21:38.637Z,5.90
2019-01-25T20:24:10.069Z,5.67
2019-01-25T20:26:42.846Z,6.00
2019-01-25T20:29:12.384Z,5.10
2019-01-25T20:31:41.988Z,5.63
2019-01-25T20:34:11.555Z,4.97
2019-01-25T20:36:41.086Z,5.27
2019-01-25T20:39:10.647Z,4.57
2019-01-25T20:41:40.201Z,5.40
2019-01-25T20:44:11.413Z,4.87
2019-01-25T20:46:41.040Z,5.33
2019-01-25T20:49:10.610Z,5.57
2019-01-25T20:51:40.134Z,5.43
2019-01-25T20:54:09.759Z,5.43
2019-01-25T20:56:39.341Z,5.07
2019-01-25T20:59:08.866Z,5.47
2019-01-25T21:01:38.466Z,4.97
2019-01-25T21:04:08.054Z,4.57
2019-01-25T21:06:39.463Z,4.13
2019-01-25T21:09:09.426Z,4.87
2019-01-25T21:11:39.454Z,4.13
2019-01-25T21:14:09.530Z,4.90
2019-01-25T21:16:39.147Z,4.93
2019-01-25T21:19:08.686Z,3.93
2019-01-25T21:21:39.828Z,4.27
2019-01-25T21:24:10.829Z,3.90
2019-01-25T21:26:41.429Z,3.83
2019-01-25T21:29:10.972Z,4.03
2019-01-25T21:31:40.600Z,4.33
2019-01-25T21:34:10.149Z,3.77
2019-01-25T21:36:40.212Z,3.70
2019-01-25T21:39:10.090Z,4.50
2019-01-25T21:41:41.374Z,3.53
2019-01-25T21:44:11.012Z,4.20
2019-01-25T21:46:40.917Z,4.87
2019-01-25T21:49:11.813Z,4.20
2019-01-25T21:51:41.385Z,4.43
2019-01-25T21:54:10.931Z,4.03
2019-01-25T21:56:40.877Z,3.87
2019-01-25T21:59:10.535Z,4.50
2019-01-25T22:01:43.163Z,4.87
2019-01-25T22:04:31.867Z,3.77
2019-01-25T22:07:01.371Z,4.93
2019-01-25T22:09:33.702Z,4.37
2019-01-25T22:12:03.228Z,3.83
2019-01-25T22:14:32.748Z,4.30
2019-01-25T22:17:02.356Z,3.80
2019-01-25T22:19:31.964Z,3.93
2019-01-25T22:22:01.521Z,4.30
2019-01-25T22:24:31.064Z,4.07
2019-01-25T22:27:00.612Z,4.10
2019-01-25T22:29:30.147Z,4.60
2019-01-25T22:32:03.066Z,3.87
2019-01-25T22:34:32.881Z,4.13
2019-01-25T22:37:02.424Z,3.60
2019-01-25T22:39:32.236Z,4.37
2019-01-25T22:42:01.769Z,4.50
2019-01-25T22:44:31.308Z,3.83
2019-01-25T22:47:00.865Z,4.00
2019-01-25T22:49:30.391Z,4.37
2019-01-25T22:52:03.018Z,4.17
2019-01-25T22:54:32.576Z,4.00
2019-01-25T22:57:02.195Z,3.40
2019-01-25T22:59:31.865Z,4.00
2019-01-25T23:02:01.396Z,3.87
2019-01-25T23:04:50.159Z,3.67
2019-01-25T23:07:19.718Z,3.80
2019-01-25T23:09:49.240Z,3.67
2019-01-25T23:12:18.782Z,3.87
2019-01-25T23:14:48.399Z,4.10
2019-01-25T23:17:18.039Z,4.10
2019-01-25T23:19:51.097Z,4.10
2019-01-25T23:22:20.386Z,4.67
2019-01-25T23:24:49.995Z,4.97
2019-01-25T23:27:19.527Z,4.70
2019-01-25T23:29:49.150Z,4.93
2019-01-25T23:32:18.698Z,5.60
2019-01-25T23:34:48.220Z,5.47
2019-01-25T23:37:17.818Z,6.20
2019-01-25T23:39:47.306Z,6.07
2019-01-25T23:42:16.850Z,6.13
2019-01-25T23:44:46.381Z,6.53
2019-01-25T23:47:15.931Z,6.80
2019-01-25T23:49:45.461Z,5.83
2019-01-25T23:52:15.011Z,6.17
2019-01-25T23:54:44.573Z,6.73
2019-01-25T23:57:14.077Z,6.97
2019-01-25T23:59:43.644Z,7.40
